createdAt,value
2018-07-07T00:02:06.695Z,8.67
2018-07-07T00:04:35.215Z,7.50
2018-07-07T00:07:05.438Z,7.47
2018-07-07T00:09:38.072Z,7.40
2018-07-07T00:12:06.618Z,7.60
2018-07-07T00:14:36.102Z,7.87
2018-07-07T00:17:04.948Z,7.30
2018-07-07T00:19:33.883Z,7.23
2018-07-07T00:22:03.058Z,7.70
2018-07-07T00:24:32.001Z,8.07
2018-07-07T00:27:00.549Z,7.77
2018-07-07T00:29:29.777Z,7.40
2018-07-07T00:31:59.898Z,7.77
2018-07-07T00:34:28.929Z,8.03
2018-07-07T00:36:57.893Z,8.30
2018-07-07T00:39:27.549Z,8.47
2018-07-07T00:41:58.853Z,8.00
2018-07-07T00:44:28.823Z,7.97
2018-07-07T00:46:58.229Z,7.83
2018-07-07T00:49:27.335Z,8.77
2018-07-07T00:51:56.635Z,8.63
2018-07-07T00:54:26.027Z,8.60
2018-07-07T00:56:55.759Z,8.37
2018-07-07T00:59:25.389Z,8.83
2018-07-07T01:01:55.037Z,8.73
2018-07-07T01:04:24.076Z,8.97
2018-07-07T01:06:54.591Z,7.93
2018-07-07T01:09:24.728Z,8.65
2018-07-07T01:11:53.997Z,8.43
2018-07-07T01:14:25.633Z,9.27
2018-07-07T01:16:55.947Z,8.37
2018-07-07T01:19:27.682Z,8.60
2018-07-07T01:21:57.648Z,9.27
2018-07-07T01:24:27.270Z,8.20
2018-07-07T01:26:56.418Z,8.27
2018-07-07T01:29:25.090Z,8.47
2018-07-07T01:31:55.327Z,8.63
2018-07-07T01:34:23.753Z,8.37
2018-07-07T01:36:52.111Z,7.90
2018-07-07T01:39:20.565Z,7.73
2018-07-07T01:41:48.957Z,7.90
2018-07-07T01:44:17.463Z,8.73
2018-07-07T01:46:45.926Z,8.40
2018-07-07T01:49:15.307Z,9.07
2018-07-07T01:51:43.724Z,8.63
2018-07-07T01:54:12.165Z,9.43
2018-07-07T01:56:58.669Z,9.80
2018-07-07T01:59:27.097Z,10.10
2018-07-07T02:01:55.616Z,9.67
2018-07-07T02:04:24.026Z,10.13
2018-07-07T02:06:52.406Z,9.73
2018-07-07T02:09:20.856Z,9.50
2018-07-07T02:11:49.278Z,9.97
2018-07-07T02:14:17.724Z,10.40
2018-07-07T02:16:46.209Z,10.13
2018-07-07T02:19:14.643Z,10.30
2018-07-07T02:21:43.146Z,10.60
2018-07-07T02:24:11.549Z,10.20
2018-07-07T02:26:40.084Z,11.17
2018-07-07T02:29:08.729Z,11.40
2018-07-07T02:31:37.107Z,9.73
2018-07-07T02:34:05.762Z,11.33
2018-07-07T02:36:34.089Z,10.60
2018-07-07T02:39:02.427Z,10.57
2018-07-07T02:41:31.015Z,9.73
2018-07-07T02:43:59.391Z,8.87
2018-07-07T02:46:27.822Z,9.60
2018-07-07T02:48:56.089Z,8.97
2018-07-07T02:51:24.594Z,9.13
2018-07-07T02:53:53.079Z,9.20
2018-07-07T02:56:21.496Z,9.77
2018-07-07T02:58:50.174Z,9.57
2018-07-07T03:01:18.861Z,9.90
2018-07-07T03:03:47.241Z,8.83
2018-07-07T03:06:15.646Z,9.20
2018-07-07T03:08:44.025Z,9.27
2018-07-07T03:11:12.474Z,9.73
2018-07-07T03:13:40.971Z,9.10
2018-07-07T03:16:09.368Z,9.27
2018-07-07T03:18:37.778Z,9.27
2018-07-07T03:21:06.167Z,9.43
2018-07-07T03:23:34.579Z,8.63
2018-07-07T03:26:03.056Z,9.07
2018-07-07T03:28:31.422Z,9.27
2018-07-07T03:30:59.817Z,8.73
2018-07-07T03:33:28.274Z,9.77
2018-07-07T03:35:56.624Z,9.83
2018-07-07T03:38:25.037Z,9.90
2018-07-07T03:40:53.467Z,10.07
2018-07-07T03:43:21.928Z,9.90
2018-07-07T03:45:50.305Z,8.87
2018-07-07T03:48:18.684Z,10.00
2018-07-07T03:50:47.029Z,9.87
2018-07-07T03:53:15.512Z,10.30
2018-07-07T03:55:43.994Z,10.17
2018-07-07T03:58:12.370Z,10.83
2018-07-07T04:00:40.810Z,11.07
2018-07-07T04:03:09.278Z,11.47
2018-07-07T04:05:37.745Z,11.90
2018-07-07T04:08:06.138Z,10.53
2018-07-07T04:10:34.498Z,11.17
2018-07-07T04:13:02.902Z,10.67
2018-07-07T04:15:31.769Z,10.37
2018-07-07T04:18:00.231Z,11.30
2018-07-07T04:20:28.799Z,10.80
2018-07-07T04:22:57.181Z,11.27
2018-07-07T04:25:25.612Z,10.57
2018-07-07T04:27:54.132Z,12.30
2018-07-07T04:30:22.550Z,11.10
2018-07-07T04:32:51.024Z,11.10
2018-07-07T04:35:19.814Z,10.63
2018-07-07T04:37:48.377Z,10.67
2018-07-07T04:40:16.805Z,10.90
2018-07-07T04:42:45.148Z,10.17
2018-07-07T04:45:13.967Z,10.47
2018-07-07T04:47:42.917Z,9.47
2018-07-07T04:50:11.287Z,9.40
2018-07-07T04:52:39.801Z,9.40
2018-07-07T04:55:08.186Z,10.53
2018-07-07T04:57:36.682Z,10.63
2018-07-07T05:00:05.864Z,9.37
2018-07-07T05:02:34.281Z,9.87
2018-07-07T05:05:02.710Z,9.57
2018-07-07T05:07:32.198Z,9.68
2018-07-07T05:10:00.580Z,10.03
2018-07-07T05:12:29.155Z,10.00
2018-07-07T05:14:57.516Z,10.17
2018-07-07T05:17:26.057Z,10.40
2018-07-07T05:19:54.457Z,10.60
2018-07-07T05:22:22.884Z,9.63
2018-07-07T05:24:51.308Z,10.53
2018-07-07T05:27:19.741Z,10.93
2018-07-07T05:29:48.124Z,11.30
2018-07-07T05:32:16.482Z,10.50
2018-07-07T05:34:45.010Z,10.57
2018-07-07T05:37:13.363Z,10.57
2018-07-07T05:39:41.833Z,10.30
2018-07-07T05:42:10.280Z,9.80
2018-07-07T05:44:38.661Z,10.07
2018-07-07T05:47:07.189Z,9.20
2018-07-07T05:49:36.011Z,9.93
2018-07-07T05:52:04.479Z,9.30
2018-07-07T05:54:33.205Z,9.03
2018-07-07T05:57:01.931Z,9.03
2018-07-07T05:59:30.498Z,9.60
2018-07-07T06:01:59.374Z,9.33
2018-07-07T06:04:27.886Z,9.80
2018-07-07T06:06:56.602Z,10.13
2018-07-07T06:09:25.162Z,9.50
2018-07-07T06:11:53.694Z,9.00
2018-07-07T06:14:22.200Z,9.80
2018-07-07T06:16:50.762Z,10.07
2018-07-07T06:19:19.236Z,9.70
2018-07-07T06:21:47.700Z,9.77
2018-07-07T06:24:16.166Z,9.63
2018-07-07T06:26:44.589Z,8.97
2018-07-07T06:29:13.585Z,10.23
2018-07-07T06:31:42.183Z,9.90
2018-07-07T06:34:10.568Z,9.50
2018-07-07T06:36:39.177Z,8.57
2018-07-07T06:39:07.689Z,9.53
2018-07-07T06:41:36.115Z,9.30
2018-07-07T06:44:04.622Z,8.70
2018-07-07T06:46:36.859Z,9.10
2018-07-07T06:49:05.950Z,8.90
2018-07-07T06:51:34.211Z,9.33
2018-07-07T06:54:02.762Z,8.17
2018-07-07T06:56:31.446Z,8.93
2018-07-07T06:59:00.307Z,8.40
2018-07-07T07:01:28.812Z,8.67
2018-07-07T07:03:57.350Z,8.07
2018-07-07T07:06:26.138Z,8.70
2018-07-07T07:08:59.037Z,8.10
2018-07-07T07:11:27.508Z,9.00
2018-07-07T07:13:56.129Z,7.63
2018-07-07T07:16:24.521Z,8.37
2018-07-07T07:18:53.113Z,7.90
2018-07-07T07:21:22.043Z,8.03
2018-07-07T07:23:50.534Z,8.73
2018-07-07T07:26:19.240Z,8.63
2018-07-07T07:28:47.991Z,8.47
2018-07-07T07:31:17.314Z,6.57
2018-07-07T07:33:46.415Z,6.90
2018-07-07T07:36:16.441Z,6.30
2018-07-07T07:38:46.171Z,6.57
2018-07-07T07:41:15.154Z,5.93
2018-07-07T07:43:43.699Z,5.33
2018-07-07T07:46:12.475Z,5.90
2018-07-07T07:48:41.548Z,4.93
2018-07-07T07:51:10.034Z,4.80
2018-07-07T07:53:38.534Z,4.60
2018-07-07T07:56:07.331Z,4.20
2018-07-07T07:58:35.827Z,3.97
2018-07-07T08:01:04.344Z,5.17
2018-07-07T08:03:32.771Z,5.00
2018-07-07T08:06:01.297Z,4.20
2018-07-07T08:08:29.988Z,4.50
2018-07-07T08:10:58.615Z,4.50
2018-07-07T08:13:26.763Z,4.80
2018-07-07T08:15:55.182Z,4.20
2018-07-07T08:18:23.662Z,3.90
2018-07-07T08:20:52.226Z,6.67
2018-07-07T08:23:20.315Z,5.53
2018-07-07T08:25:49.418Z,3.40
2018-07-07T08:28:18.312Z,3.30
2018-07-07T08:30:46.715Z,3.30
2018-07-07T08:33:16.348Z,3.33
2018-07-07T08:35:45.350Z,3.03
2018-07-07T08:38:15.922Z,4.07
2018-07-07T08:40:44.810Z,3.40
2018-07-07T08:43:14.911Z,3.10
2018-07-07T08:45:44.092Z,3.83
2018-07-07T08:48:12.786Z,4.17
2018-07-07T08:50:42.112Z,4.00
2018-07-07T08:53:10.573Z,4.27
2018-07-07T08:55:39.558Z,3.80
2018-07-07T08:58:08.288Z,4.03
2018-07-07T09:00:36.961Z,4.40
2018-07-07T09:03:06.957Z,4.40
2018-07-07T09:05:35.717Z,3.73
2018-07-07T09:08:04.782Z,3.93
2018-07-07T09:10:33.791Z,4.20
2018-07-07T09:13:02.387Z,4.50
2018-07-07T09:15:31.070Z,3.90
2018-07-07T09:17:59.880Z,4.90
2018-07-07T09:20:29.642Z,4.57
2018-07-07T09:22:58.542Z,4.27
2018-07-07T09:25:27.376Z,4.90
2018-07-07T09:27:56.174Z,4.07
2018-07-07T09:30:27.620Z,3.77
2018-07-07T09:32:56.586Z,3.77
2018-07-07T09:35:25.407Z,3.23
2018-07-07T09:37:54.362Z,4.00
2018-07-07T09:40:25.282Z,3.83
2018-07-07T09:42:54.096Z,3.90
2018-07-07T09:45:22.734Z,4.13
2018-07-07T09:47:51.522Z,4.83
2018-07-07T09:50:20.550Z,3.63
2018-07-07T09:52:50.679Z,4.00
2018-07-07T09:55:19.906Z,3.60
2018-07-07T09:57:49.060Z,5.57
2018-07-07T10:00:22.290Z,3.93
2018-07-07T10:02:50.930Z,3.23
2018-07-07T10:05:19.761Z,3.33
2018-07-07T10:07:48.654Z,3.00
2018-07-07T10:10:17.858Z,3.33
2018-07-07T10:12:46.315Z,3.50
2018-07-07T10:15:14.833Z,3.37
2018-07-07T10:17:43.551Z,3.23
2018-07-07T10:20:14.705Z,3.60
2018-07-07T10:22:44.313Z,3.17
2018-07-07T10:25:12.788Z,2.60
2018-07-07T10:27:42.035Z,3.17
2018-07-07T10:30:10.558Z,2.77
2018-07-07T10:32:39.918Z,3.43
2018-07-07T10:35:08.374Z,3.10
2018-07-07T10:37:39.012Z,3.20
2018-07-07T10:40:07.478Z,3.47
2018-07-07T10:42:35.927Z,3.07
2018-07-07T10:45:06.347Z,3.30
2018-07-07T10:47:34.885Z,3.07
2018-07-07T10:50:06.062Z,2.97
2018-07-07T10:52:34.725Z,2.93
2018-07-07T10:55:04.853Z,3.00
2018-07-07T10:57:33.709Z,2.50
2018-07-07T11:00:02.937Z,3.10
2018-07-07T11:02:32.014Z,4.40
2018-07-07T11:05:00.934Z,4.37
2018-07-07T11:07:30.931Z,3.33
2018-07-07T11:10:00.963Z,3.77
2018-07-07T11:12:30.611Z,2.90
2018-07-07T11:14:59.861Z,3.63
2018-07-07T11:17:34.782Z,3.60
2018-07-07T11:20:04.527Z,3.40
2018-07-07T11:22:35.057Z,3.33
2018-07-07T11:25:04.626Z,3.47
2018-07-07T11:27:36.849Z,4.03
2018-07-07T11:30:06.007Z,3.33
2018-07-07T11:32:35.285Z,3.17
2018-07-07T11:35:03.914Z,3.40
2018-07-07T11:37:32.905Z,3.10
2018-07-07T11:40:01.453Z,2.93
2018-07-07T11:42:30.014Z,3.03
2018-07-07T11:44:58.636Z,2.50
2018-07-07T11:47:29.321Z,2.57
2018-07-07T11:50:06.283Z,2.90
2018-07-07T11:52:38.065Z,2.90
2018-07-07T11:55:06.649Z,3.23
2018-07-07T11:57:40.059Z,2.73
2018-07-07T12:00:09.840Z,2.60
2018-07-07T12:02:38.600Z,2.20
2018-07-07T12:05:07.357Z,3.20
2018-07-07T12:07:35.830Z,2.73
2018-07-07T12:10:04.654Z,2.70
2018-07-07T12:12:34.730Z,2.70
2018-07-07T12:15:03.366Z,3.60
2018-07-07T12:17:32.422Z,3.10
2018-07-07T12:20:01.104Z,2.50
2018-07-07T12:22:29.581Z,2.27
2018-07-07T12:24:58.249Z,2.70
2018-07-07T12:27:26.773Z,2.77
2018-07-07T12:29:55.625Z,2.40
2018-07-07T12:32:24.289Z,2.77
2018-07-07T12:34:52.698Z,2.80
2018-07-07T12:37:21.253Z,2.80
2018-07-07T12:39:49.788Z,2.47
2018-07-07T12:42:18.453Z,2.70
2018-07-07T12:44:47.291Z,2.63
2018-07-07T12:47:15.894Z,2.40
2018-07-07T12:49:44.406Z,2.53
2018-07-07T12:52:12.804Z,2.40
2018-07-07T12:54:41.406Z,2.30
2018-07-07T12:57:09.803Z,2.50
2018-07-07T12:59:38.338Z,2.73
2018-07-07T13:02:07.159Z,2.97
2018-07-07T13:04:35.679Z,2.73
2018-07-07T13:07:04.268Z,2.23
2018-07-07T13:09:33.554Z,2.70
2018-07-07T13:12:02.155Z,2.50
2018-07-07T13:14:30.646Z,2.37
2018-07-07T13:16:59.708Z,2.53
2018-07-07T13:19:28.655Z,2.80
2018-07-07T13:21:57.143Z,3.20
2018-07-07T13:24:25.550Z,2.70
2018-07-07T13:26:54.037Z,3.03
2018-07-07T13:29:22.945Z,2.87
2018-07-07T13:31:51.803Z,2.47
2018-07-07T13:34:20.527Z,3.13
2018-07-07T13:36:49.297Z,2.50
2018-07-07T13:39:17.769Z,3.00
2018-07-07T13:41:47.843Z,3.20
2018-07-07T13:44:16.281Z,2.87
2018-07-07T13:46:44.913Z,2.87
2018-07-07T13:49:13.518Z,3.17
2018-07-07T13:51:42.294Z,2.80
2018-07-07T13:54:10.900Z,3.00
2018-07-07T13:56:39.564Z,3.10
2018-07-07T13:59:09.414Z,3.23
2018-07-07T14:01:37.930Z,4.67
2018-07-07T14:04:06.997Z,3.58
2018-07-07T14:06:40.441Z,4.37
2018-07-07T14:09:09.862Z,3.77
2018-07-07T14:11:44.155Z,2.90
2018-07-07T14:14:13.506Z,2.67
2018-07-07T14:16:42.102Z,2.70
2018-07-07T14:19:12.317Z,3.27
2018-07-07T14:21:40.733Z,3.20
2018-07-07T14:24:10.915Z,3.17
2018-07-07T14:29:27.560Z,3.08
2018-07-07T14:31:58.216Z,3.05
2018-07-07T14:34:27.528Z,2.90
2018-07-07T14:36:56.484Z,3.20
2018-07-07T14:39:28.150Z,3.17
2018-07-07T14:42:08.116Z,3.00
2018-07-07T14:44:38.228Z,3.13
2018-07-07T14:47:07.054Z,3.10
2018-07-07T14:49:36.326Z,2.97
2018-07-07T14:52:07.152Z,3.58
2018-07-07T14:54:37.464Z,4.43
2018-07-07T14:57:06.942Z,4.40
2018-07-07T14:59:35.650Z,3.90
2018-07-07T15:02:04.939Z,3.27
2018-07-07T15:04:34.793Z,2.90
2018-07-07T15:07:03.614Z,2.83
2018-07-07T15:09:38.838Z,2.97
2018-07-07T15:12:17.188Z,3.30
2018-07-07T15:15:01.788Z,3.43
2018-07-07T15:17:30.696Z,2.90
2018-07-07T15:20:01.412Z,3.40
2018-07-07T15:42:04.888Z,3.07
2018-07-07T15:44:33.374Z,2.70
2018-07-07T15:47:02.096Z,2.73
2018-07-07T15:49:31.622Z,2.95
2018-07-07T15:52:00.175Z,2.90
2018-07-07T15:54:28.712Z,2.67
2018-07-07T15:56:57.176Z,3.17
2018-07-07T15:59:25.585Z,3.00
2018-07-07T16:01:54.288Z,3.03
2018-07-07T16:04:22.722Z,3.33
2018-07-07T16:06:51.280Z,3.20
2018-07-07T16:09:19.807Z,3.03
2018-07-07T16:11:48.687Z,2.77
2018-07-07T16:14:17.109Z,3.27
2018-07-07T16:16:45.937Z,3.50
2018-07-07T16:19:14.784Z,2.83
2018-07-07T16:21:43.289Z,2.77
2018-07-07T16:24:12.123Z,2.93
2018-07-07T16:26:40.675Z,2.50
2018-07-07T16:29:09.428Z,2.60
2018-07-07T16:31:37.863Z,2.77
2018-07-07T16:34:06.639Z,3.27
2018-07-07T16:36:35.120Z,2.77
2018-07-07T16:39:03.753Z,2.63
2018-07-07T16:41:32.392Z,2.70
2018-07-07T16:44:00.940Z,2.50
2018-07-07T16:46:29.608Z,2.70
2018-07-07T16:48:58.197Z,2.77
2018-07-07T16:51:26.747Z,2.87
2018-07-07T16:53:55.655Z,2.53
2018-07-07T16:56:24.661Z,2.45
2018-07-07T16:58:53.160Z,2.47
2018-07-07T17:01:21.666Z,2.70
2018-07-07T17:04:01.332Z,2.80
2018-07-07T17:06:32.252Z,2.80
2018-07-07T17:09:00.916Z,2.70
2018-07-07T17:11:29.686Z,2.70
2018-07-07T17:13:59.124Z,3.00
2018-07-07T17:16:28.016Z,2.50
2018-07-07T17:19:00.062Z,2.50
2018-07-07T17:21:28.948Z,2.90
2018-07-07T17:23:57.612Z,2.67
2018-07-07T17:26:26.564Z,2.30
2018-07-07T17:28:56.461Z,2.47
2018-07-07T17:31:25.138Z,2.30
2018-07-07T17:33:53.997Z,2.40
2018-07-07T17:36:25.468Z,2.50
2018-07-07T17:38:53.851Z,2.30
2018-07-07T17:41:23.012Z,2.53
2018-07-07T17:43:51.602Z,2.90
2018-07-07T17:46:20.494Z,3.30
2018-07-07T17:48:49.013Z,2.80
2018-07-07T17:51:17.876Z,3.10
2018-07-07T17:53:46.360Z,2.80
2018-07-07T17:56:17.506Z,2.40
2018-07-07T17:58:46.837Z,2.70
2018-07-07T18:01:16.073Z,2.70
2018-07-07T18:03:44.981Z,2.63
2018-07-07T18:06:13.435Z,2.70
2018-07-07T18:08:43.459Z,2.63
2018-07-07T18:11:12.859Z,2.55
2018-07-07T18:13:41.675Z,2.40
2018-07-07T18:16:10.185Z,2.90
2018-07-07T18:18:43.636Z,2.90
2018-07-07T18:21:13.708Z,3.07
2018-07-07T18:23:46.130Z,2.67
2018-07-07T18:26:15.443Z,3.40
2018-07-07T18:28:44.730Z,2.60
2018-07-07T18:31:17.286Z,2.70
2018-07-07T18:33:50.443Z,2.80
2018-07-07T18:36:20.203Z,3.00
2018-07-07T18:38:49.507Z,3.00
2018-07-07T18:41:18.122Z,2.90
2018-07-07T18:43:48.489Z,4.17
2018-07-07T18:46:17.316Z,5.57
2018-07-07T18:48:45.990Z,4.03
2018-07-07T18:51:15.719Z,3.60
2018-07-07T18:53:46.069Z,3.47
2018-07-07T18:56:15.523Z,3.77
2018-07-07T18:58:49.799Z,3.30
2018-07-07T19:01:18.583Z,4.17
2018-07-07T19:03:48.329Z,3.97
2018-07-07T19:06:17.139Z,3.23
2018-07-07T19:08:46.469Z,3.53
2018-07-07T19:11:15.993Z,4.27
2018-07-07T19:13:50.621Z,4.20
2018-07-07T19:16:19.293Z,4.20
2018-07-07T19:18:48.435Z,4.80
2018-07-07T19:21:22.510Z,4.27
2018-07-07T19:23:56.723Z,3.70
2018-07-07T19:26:30.633Z,4.23
2018-07-07T19:28:59.586Z,3.53
2018-07-07T19:31:28.103Z,21.57
2018-07-07T19:34:02.038Z,8.83
2018-07-07T19:36:36.068Z,9.47
2018-07-07T19:39:05.804Z,7.43
2018-07-07T19:41:34.644Z,5.67
2018-07-07T19:44:03.520Z,6.03
2018-07-07T19:46:32.270Z,4.63
2018-07-07T19:49:02.060Z,5.07
2018-07-07T19:51:30.869Z,4.30
2018-07-07T19:53:59.745Z,4.50
2018-07-07T19:56:28.793Z,4.87
2018-07-07T19:58:57.731Z,5.03
2018-07-07T20:01:27.334Z,5.00
2018-07-07T20:03:56.157Z,5.07
2018-07-07T20:06:25.047Z,60.77
2018-07-07T20:08:54.844Z,14.77
2018-07-07T20:11:23.529Z,9.80
2018-07-07T20:13:52.030Z,8.93
2018-07-07T20:17:29.412Z,7.07
2018-07-07T20:20:34.525Z,6.97
2018-07-07T20:23:05.816Z,29.27
2018-07-07T20:25:34.592Z,18.67
2018-07-07T20:28:09.628Z,13.87
2018-07-07T20:30:39.226Z,10.00
2018-07-07T20:33:08.674Z,7.97
2018-07-07T20:35:37.309Z,8.67
2018-07-07T20:38:05.884Z,8.67
2018-07-07T20:40:34.672Z,8.57
2018-07-07T20:43:04.372Z,8.20
2018-07-07T20:45:32.897Z,8.30
2018-07-07T20:48:01.665Z,9.23
2018-07-07T20:50:30.478Z,9.63
2018-07-07T20:52:59.210Z,41.97
2018-07-07T20:55:28.524Z,115.80
2018-07-07T20:57:57.386Z,167.57
2018-07-07T21:00:25.858Z,160.57
2018-07-07T21:02:54.393Z,205.07
2018-07-07T21:05:22.988Z,176.93
2018-07-07T21:07:51.374Z,139.10
2018-07-07T21:10:21.065Z,124.47
2018-07-07T21:12:49.660Z,107.70
2018-07-07T21:15:20.515Z,94.80
2018-07-07T21:17:49.199Z,130.20
2018-07-07T21:20:17.833Z,99.83
2018-07-07T21:22:46.910Z,74.27
2018-07-07T21:25:16.059Z,67.07
2018-07-07T21:27:46.040Z,53.67
2018-07-07T21:30:15.213Z,55.50
2018-07-07T21:32:43.842Z,59.23
2018-07-07T21:35:12.515Z,54.70
2018-07-07T21:37:41.319Z,49.80
2018-07-07T21:40:10.090Z,47.17
2018-07-07T21:42:39.932Z,44.33
2018-07-07T21:45:10.981Z,41.07
2018-07-07T21:47:42.178Z,57.67
2018-07-07T21:50:10.766Z,40.90
2018-07-07T21:52:40.146Z,35.97
2018-07-07T21:55:08.780Z,30.07
2018-07-07T21:57:43.720Z,25.43
2018-07-07T22:00:19.527Z,25.40
2018-07-07T22:02:55.459Z,24.97
2018-07-07T22:05:31.087Z,24.23
2018-07-07T22:08:06.053Z,18.93
2018-07-07T22:10:34.733Z,19.50
2018-07-07T22:13:03.245Z,17.93
2018-07-07T22:15:32.089Z,14.90
2018-07-07T22:18:00.747Z,13.17
2018-07-07T22:20:32.577Z,14.60
2018-07-07T22:23:01.085Z,17.53
2018-07-07T22:25:29.497Z,11.40
2018-07-07T22:27:57.989Z,10.70
2018-07-07T22:30:27.624Z,10.60
2018-07-07T22:33:01.577Z,9.43
2018-07-07T22:35:35.446Z,13.03
2018-07-07T22:38:08.080Z,9.60
2018-07-07T22:40:37.530Z,9.10
2018-07-07T22:43:06.240Z,8.83
2018-07-07T22:45:38.377Z,8.17
2018-07-07T22:48:08.779Z,7.83
2018-07-07T22:50:39.116Z,8.93
2018-07-07T22:53:09.785Z,8.53
2018-07-07T22:55:38.371Z,8.50
2018-07-07T22:58:06.913Z,8.77
2018-07-07T23:00:36.688Z,9.00
2018-07-07T23:03:05.220Z,7.57
2018-07-07T23:05:33.716Z,7.93
2018-07-07T23:08:02.874Z,7.43
2018-07-07T23:10:34.469Z,7.70
2018-07-07T23:13:03.134Z,7.53
2018-07-07T23:15:31.695Z,8.57
2018-07-07T23:18:00.416Z,7.40
2018-07-07T23:20:29.511Z,7.57
2018-07-07T23:22:58.396Z,7.57
2018-07-07T23:25:27.314Z,8.00
2018-07-07T23:27:55.854Z,8.43
2018-07-07T23:30:24.565Z,8.47
2018-07-07T23:32:53.478Z,8.30
2018-07-07T23:35:22.147Z,9.27
2018-07-07T23:37:50.901Z,8.30
2018-07-07T23:40:19.454Z,8.00
2018-07-07T23:42:48.615Z,8.40
2018-07-07T23:45:17.342Z,8.37
2018-07-07T23:47:45.935Z,8.77
2018-07-07T23:50:14.666Z,8.33
2018-07-07T23:52:43.113Z,8.07
2018-07-07T23:55:11.563Z,8.00
2018-07-07T23:57:39.912Z,8.30
